createdAt,value
2017-11-11T00:00:06.346Z,8.71
2017-11-11T00:01:06.374Z,8.68
2017-11-11T00:02:06.405Z,8.68
2017-11-11T00:03:06.436Z,8.79
2017-11-11T00:04:06.466Z,8.66
2017-11-11T00:05:06.496Z,8.80
2017-11-11T00:06:06.526Z,8.79
2017-11-11T00:07:06.556Z,8.80
2017-11-11T00:08:06.585Z,8.80
2017-11-11T00:09:06.615Z,8.83
2017-11-11T00:10:06.651Z,8.79
2017-11-11T00:11:06.676Z,8.80
2017-11-11T00:12:06.704Z,8.91
2017-11-11T00:13:06.735Z,8.87
2017-11-11T00:14:06.765Z,8.89
2017-11-11T00:15:06.796Z,8.81
2017-11-11T00:16:06.825Z,8.81
2017-11-11T00:17:06.856Z,8.80
2017-11-11T00:18:06.885Z,8.68
2017-11-11T00:19:06.915Z,8.68
2017-11-11T00:20:06.945Z,8.62
2017-11-11T00:21:06.976Z,8.62
2017-11-11T00:22:07.006Z,8.66
2017-11-11T00:23:07.036Z,8.50
2017-11-11T00:24:07.065Z,8.52
2017-11-11T00:25:07.096Z,8.61
2017-11-11T00:26:07.133Z,8.62
2017-11-11T00:27:07.157Z,8.62
2017-11-11T00:28:07.185Z,8.50
2017-11-11T00:29:07.216Z,8.53
2017-11-11T00:30:07.246Z,8.52
2017-11-11T00:31:07.277Z,8.62
2017-11-11T00:32:07.306Z,8.56
2017-11-11T00:33:07.336Z,8.58
2017-11-11T00:34:07.368Z,8.50
2017-11-11T00:35:07.397Z,8.63
2017-11-11T00:36:07.428Z,8.62
2017-11-11T00:37:07.458Z,8.62
2017-11-11T00:38:07.486Z,8.52
2017-11-11T00:39:07.518Z,8.52
2017-11-11T00:40:07.546Z,8.55
2017-11-11T00:41:07.578Z,8.56
2017-11-11T00:42:07.608Z,8.61
2017-11-11T00:43:07.647Z,8.61
2017-11-11T00:44:07.669Z,8.56
2017-11-11T00:45:07.699Z,8.66
2017-11-11T00:46:07.730Z,8.65
2017-11-11T00:47:07.761Z,8.56
2017-11-11T00:48:07.791Z,8.50
2017-11-11T00:49:07.821Z,8.52
2017-11-11T00:50:07.850Z,8.52
2017-11-11T00:51:07.931Z,8.65
2017-11-11T00:52:07.909Z,8.52
2017-11-11T00:53:07.940Z,8.66
2017-11-11T00:54:07.972Z,8.62
2017-11-11T00:55:08.003Z,8.70
2017-11-11T00:56:08.031Z,8.66
2017-11-11T00:57:08.099Z,8.63
2017-11-11T00:58:08.092Z,8.71
2017-11-11T00:59:08.124Z,8.58
2017-11-11T01:00:08.154Z,8.61
2017-11-11T01:01:08.186Z,8.59
2017-11-11T01:02:08.214Z,8.66
2017-11-11T01:03:08.243Z,8.50
2017-11-11T01:04:08.275Z,8.55
2017-11-11T01:05:08.306Z,8.66
2017-11-11T01:06:08.335Z,8.58
2017-11-11T01:07:08.366Z,8.66
2017-11-11T01:08:08.395Z,8.63
2017-11-11T01:09:08.425Z,8.61
2017-11-11T01:10:08.455Z,8.61
2017-11-11T01:11:08.487Z,8.59
2017-11-11T01:12:08.515Z,8.65
2017-11-11T01:13:08.545Z,8.65
2017-11-11T01:14:08.576Z,8.66
2017-11-11T01:15:08.608Z,8.65
2017-11-11T01:16:08.637Z,8.55
2017-11-11T01:17:08.668Z,8.50
2017-11-11T01:18:08.704Z,8.50
2017-11-11T01:19:08.727Z,8.53
2017-11-11T01:20:08.757Z,8.47
2017-11-11T01:21:08.791Z,8.55
2017-11-11T01:22:08.818Z,8.48
2017-11-11T01:23:08.850Z,8.52
2017-11-11T01:24:08.878Z,8.55
2017-11-11T01:25:08.911Z,8.45
2017-11-11T01:26:08.940Z,8.45
2017-11-11T01:27:08.971Z,8.52
2017-11-11T01:28:08.998Z,8.58
2017-11-11T01:29:09.031Z,8.52
2017-11-11T01:30:09.061Z,8.55
2017-11-11T01:31:09.092Z,8.58
2017-11-11T01:32:09.121Z,8.48
2017-11-11T01:33:09.151Z,8.44
2017-11-11T01:34:09.182Z,8.43
2017-11-11T01:35:09.213Z,8.41
2017-11-11T01:36:09.242Z,8.37
2017-11-11T01:37:09.272Z,8.29
2017-11-11T01:38:09.302Z,8.22
2017-11-11T01:39:09.333Z,8.20
2017-11-11T01:40:09.361Z,8.18
2017-11-11T01:41:09.393Z,8.05
2017-11-11T01:42:09.423Z,8.08
2017-11-11T01:43:09.505Z,8.10
2017-11-11T01:44:09.482Z,7.98
2017-11-11T01:45:09.514Z,8.01
2017-11-11T01:46:09.542Z,7.89
2017-11-11T01:47:09.581Z,7.98
2017-11-11T01:48:09.604Z,7.93
2017-11-11T01:49:09.634Z,7.85
2017-11-11T01:50:09.663Z,7.85
2017-11-11T01:51:09.696Z,7.80
2017-11-11T01:52:09.722Z,7.86
2017-11-11T01:53:09.753Z,7.80
2017-11-11T01:54:09.787Z,7.75
2017-11-11T01:55:09.815Z,7.72
2017-11-11T01:56:09.843Z,7.71
2017-11-11T01:57:09.874Z,7.67
2017-11-11T01:58:09.903Z,7.75
2017-11-11T01:59:09.936Z,7.74
2017-11-11T02:00:09.964Z,7.82
2017-11-11T02:01:09.993Z,7.77
2017-11-11T02:02:10.025Z,7.79
2017-11-11T02:03:10.061Z,7.69
2017-11-11T02:04:10.085Z,7.80
2017-11-11T02:05:10.115Z,7.74
2017-11-11T02:06:10.145Z,7.72
2017-11-11T02:07:10.176Z,7.74
2017-11-11T02:08:10.204Z,7.67
2017-11-11T02:09:10.283Z,7.63
2017-11-11T02:10:10.266Z,7.74
2017-11-11T02:11:10.299Z,7.68
2017-11-11T02:12:10.323Z,7.77
2017-11-11T02:13:10.354Z,7.82
2017-11-11T02:14:10.384Z,7.72
2017-11-11T02:15:10.415Z,7.74
2017-11-11T02:16:10.444Z,7.79
2017-11-11T02:17:10.473Z,7.75
2017-11-11T02:18:10.504Z,7.77
2017-11-11T02:19:10.535Z,7.74
2017-11-11T02:20:10.563Z,7.75
2017-11-11T02:21:10.594Z,7.75
2017-11-11T02:22:10.642Z,7.77
2017-11-11T02:23:10.653Z,7.77
2017-11-11T02:24:10.684Z,7.50
2017-11-11T02:25:10.713Z,7.42
2017-11-11T02:26:10.748Z,7.45
2017-11-11T02:27:10.773Z,7.43
2017-11-11T02:28:10.810Z,7.45
2017-11-11T02:29:10.832Z,7.46
2017-11-11T02:30:10.865Z,7.48
2017-11-11T02:31:10.893Z,7.52
2017-11-11T02:32:10.923Z,7.52
2017-11-11T02:33:10.951Z,7.50
2017-11-11T02:34:10.984Z,7.53
2017-11-11T02:35:11.015Z,7.63
2017-11-11T02:36:11.043Z,7.61
2017-11-11T02:37:11.073Z,7.50
2017-11-11T02:38:11.101Z,7.50
2017-11-11T02:39:11.183Z,7.53
2017-11-11T02:40:11.162Z,7.48
2017-11-11T02:41:11.192Z,7.61
2017-11-11T02:42:11.223Z,7.53
2017-11-11T02:43:11.251Z,7.52
2017-11-11T02:44:11.310Z,7.52
2017-11-11T02:45:11.315Z,7.50
2017-11-11T02:46:11.342Z,7.49
2017-11-11T02:47:11.371Z,7.46
2017-11-11T02:48:11.400Z,7.43
2017-11-11T02:49:11.462Z,7.50
2017-11-11T02:50:11.460Z,7.55
2017-11-11T02:51:11.490Z,7.52
2017-11-11T02:52:11.520Z,7.45
2017-11-11T02:53:11.549Z,7.46
2017-11-11T02:54:11.630Z,7.37
2017-11-11T02:55:11.609Z,7.39
2017-11-11T02:56:11.639Z,7.46
2017-11-11T02:57:11.673Z,7.48
2017-11-11T02:58:11.698Z,7.39
2017-11-11T02:59:11.729Z,7.45
2017-11-11T03:00:11.762Z,7.42
2017-11-11T03:01:11.786Z,7.45
2017-11-11T03:02:11.817Z,7.48
2017-11-11T03:03:11.848Z,7.52
2017-11-11T03:04:11.877Z,7.45
2017-11-11T03:05:11.910Z,7.46
2017-11-11T03:06:11.936Z,7.49
2017-11-11T03:07:11.966Z,7.43
2017-11-11T03:08:12.000Z,7.45
2017-11-11T03:09:12.026Z,7.48
2017-11-11T03:10:12.054Z,7.49
2017-11-11T03:11:12.086Z,7.35
2017-11-11T03:12:12.115Z,7.35
2017-11-11T03:13:12.144Z,7.34
2017-11-11T03:14:12.173Z,7.35
2017-11-11T03:15:12.203Z,7.31
2017-11-11T03:16:12.232Z,7.32
2017-11-11T03:17:12.269Z,7.25
2017-11-11T03:18:12.295Z,7.35
2017-11-11T03:19:12.322Z,7.28
2017-11-11T03:20:12.351Z,7.32
2017-11-11T03:21:12.380Z,7.34
2017-11-11T03:22:12.411Z,7.28
2017-11-11T03:23:12.448Z,7.34
2017-11-11T03:24:12.470Z,7.34
2017-11-11T03:25:12.500Z,7.40
2017-11-11T03:26:12.530Z,7.39
2017-11-11T03:27:12.560Z,7.40
2017-11-11T03:28:12.588Z,7.46
2017-11-11T03:29:12.618Z,7.37
2017-11-11T03:30:12.650Z,7.32
2017-11-11T03:31:12.679Z,7.35
2017-11-11T03:32:12.707Z,7.39
2017-11-11T03:33:12.735Z,7.17
2017-11-11T03:34:12.766Z,7.25
2017-11-11T03:35:12.794Z,7.42
2017-11-11T03:36:12.873Z,7.30
2017-11-11T03:37:12.852Z,7.23
2017-11-11T03:38:12.886Z,7.34
2017-11-11T03:39:12.918Z,7.20
2017-11-11T03:40:12.946Z,7.20
2017-11-11T03:41:12.971Z,7.17
2017-11-11T03:42:13.000Z,7.15
2017-11-11T03:43:13.036Z,7.13
2017-11-11T03:44:13.061Z,7.15
2017-11-11T03:45:13.090Z,7.27
2017-11-11T03:46:13.170Z,7.17
2017-11-11T03:47:13.149Z,7.17
2017-11-11T03:48:13.177Z,7.13
2017-11-11T03:49:13.208Z,7.15
2017-11-11T03:50:13.238Z,7.17
2017-11-11T03:51:13.267Z,7.17
2017-11-11T03:52:13.296Z,7.13
2017-11-11T03:53:13.327Z,7.23
2017-11-11T03:54:13.355Z,7.13
2017-11-11T03:55:13.385Z,7.16
2017-11-11T03:56:13.464Z,7.16
2017-11-11T03:57:13.447Z,7.13
2017-11-11T03:58:13.478Z,7.12
2017-11-11T03:59:13.504Z,7.16
2017-11-11T04:00:13.533Z,6.99
2017-11-11T04:01:13.562Z,7.07
2017-11-11T04:02:13.591Z,7.06
2017-11-11T04:03:13.621Z,7.06
2017-11-11T04:04:13.656Z,7.13
2017-11-11T04:05:13.679Z,7.21
2017-11-11T04:06:13.759Z,7.16
2017-11-11T04:07:13.744Z,7.17
2017-11-11T04:08:13.767Z,7.16
2017-11-11T04:09:13.797Z,7.06
2017-11-11T04:10:13.827Z,7.05
2017-11-11T04:11:13.856Z,7.10
2017-11-11T04:12:13.886Z,7.06
2017-11-11T04:13:13.920Z,7.06
2017-11-11T04:14:13.956Z,7.07
2017-11-11T04:15:13.974Z,7.05
2017-11-11T04:16:14.003Z,6.99
2017-11-11T04:17:14.033Z,7.05
2017-11-11T04:18:14.062Z,7.07
2017-11-11T04:19:14.092Z,6.97
2017-11-11T04:20:14.121Z,7.02
2017-11-11T04:21:14.150Z,7.03
2017-11-11T04:22:14.180Z,6.99
2017-11-11T04:23:14.209Z,7.06
2017-11-11T04:24:14.238Z,7.05
2017-11-11T04:25:14.266Z,6.99
2017-11-11T04:26:14.296Z,7.02
2017-11-11T04:27:14.328Z,6.97
2017-11-11T04:28:14.356Z,7.07
2017-11-11T04:29:14.385Z,6.99
2017-11-11T04:30:14.418Z,7.13
2017-11-11T04:31:14.444Z,7.09
2017-11-11T04:32:14.473Z,7.06
2017-11-11T04:33:14.502Z,7.10
2017-11-11T04:34:14.532Z,7.13
2017-11-11T04:35:14.562Z,6.99
2017-11-11T04:36:14.590Z,7.03
2017-11-11T04:37:14.619Z,7.02
2017-11-11T04:38:14.649Z,6.92
2017-11-11T04:39:14.679Z,6.92
2017-11-11T04:40:14.706Z,6.95
2017-11-11T04:41:14.735Z,6.89
2017-11-11T04:42:14.766Z,6.91
2017-11-11T04:43:14.847Z,6.92
2017-11-11T04:44:14.824Z,6.95
2017-11-11T04:45:14.858Z,6.95
2017-11-11T04:46:14.883Z,6.95
2017-11-11T04:47:14.912Z,7.07
2017-11-11T04:48:14.941Z,7.05
2017-11-11T04:49:14.971Z,7.06
2017-11-11T04:50:15.001Z,7.06
2017-11-11T04:51:15.032Z,7.05
2017-11-11T04:52:15.060Z,7.12
2017-11-11T04:53:15.090Z,7.07
2017-11-11T04:54:15.118Z,7.02
2017-11-11T04:55:15.146Z,7.02
2017-11-11T04:56:15.178Z,7.09
2017-11-11T04:57:15.205Z,6.99
2017-11-11T04:58:15.234Z,6.97
2017-11-11T04:59:15.267Z,6.92
2017-11-11T05:00:15.291Z,6.98
2017-11-11T05:01:15.327Z,6.94
2017-11-11T05:02:15.351Z,7.03
2017-11-11T05:03:15.381Z,6.95
2017-11-11T05:04:15.408Z,6.99
2017-11-11T05:05:15.438Z,6.99
2017-11-11T05:06:15.468Z,6.99
2017-11-11T05:07:15.497Z,7.05
2017-11-11T05:08:15.525Z,7.05
2017-11-11T05:09:15.555Z,7.03
2017-11-11T05:10:15.583Z,7.17
2017-11-11T05:11:15.617Z,7.21
2017-11-11T05:12:15.642Z,7.15
2017-11-11T05:13:15.674Z,7.27
2017-11-11T05:14:15.700Z,7.16
2017-11-11T05:15:15.733Z,7.17
2017-11-11T05:16:15.758Z,7.16
2017-11-11T05:17:15.788Z,7.13
2017-11-11T05:18:15.818Z,7.21
2017-11-11T05:19:15.847Z,7.17
2017-11-11T05:20:15.875Z,7.16
2017-11-11T05:21:15.903Z,7.20
2017-11-11T05:22:15.934Z,7.17
2017-11-11T05:23:15.973Z,7.05
2017-11-11T05:24:15.991Z,7.07
2017-11-11T05:25:16.021Z,7.05
2017-11-11T05:26:16.052Z,7.06
2017-11-11T05:27:16.080Z,6.92
2017-11-11T05:28:16.108Z,6.92
2017-11-11T05:29:16.136Z,6.94
2017-11-11T05:30:16.168Z,6.92
2017-11-11T05:31:16.197Z,6.97
2017-11-11T05:32:16.225Z,6.91
2017-11-11T05:33:16.254Z,6.92
2017-11-11T05:34:16.285Z,6.99
2017-11-11T05:35:16.318Z,6.92
2017-11-11T05:36:16.346Z,6.89
2017-11-11T05:37:16.370Z,6.92
2017-11-11T05:38:16.401Z,6.98
2017-11-11T05:39:16.431Z,6.99
2017-11-11T05:40:16.458Z,7.12
2017-11-11T05:41:16.488Z,7.13
2017-11-11T05:42:16.538Z,7.16
2017-11-11T05:43:16.551Z,7.07
2017-11-11T05:44:16.575Z,7.12
2017-11-11T05:45:16.654Z,7.10
2017-11-11T05:46:16.635Z,7.02
2017-11-11T05:47:16.664Z,6.99
2017-11-11T05:48:16.693Z,6.92
2017-11-11T05:49:16.726Z,6.98
2017-11-11T05:50:16.750Z,6.97
2017-11-11T05:51:16.778Z,6.87
2017-11-11T05:52:16.808Z,6.91
2017-11-11T05:53:16.837Z,6.92
2017-11-11T05:54:16.867Z,6.95
2017-11-11T05:55:16.897Z,6.77
2017-11-11T05:56:16.928Z,6.81
2017-11-11T05:57:16.962Z,6.80
2017-11-11T05:58:16.982Z,6.85
2017-11-11T05:59:17.012Z,6.73
2017-11-11T06:00:17.040Z,6.76
2017-11-11T06:01:17.069Z,6.76
2017-11-11T06:02:17.106Z,6.62
2017-11-11T06:03:17.128Z,6.55
2017-11-11T06:04:17.157Z,6.52
2017-11-11T06:05:17.188Z,6.54
2017-11-11T06:06:17.265Z,6.58
2017-11-11T06:07:17.244Z,6.71
2017-11-11T06:08:17.273Z,6.71
2017-11-11T06:09:17.303Z,6.71
2017-11-11T06:10:17.333Z,6.76
2017-11-11T06:11:17.360Z,6.76
2017-11-11T06:12:17.391Z,6.77
2017-11-11T06:13:17.420Z,6.91
2017-11-11T06:14:17.449Z,6.84
2017-11-11T06:15:17.479Z,6.85
2017-11-11T06:16:17.513Z,6.80
2017-11-11T06:17:17.536Z,6.79
2017-11-11T06:18:17.566Z,6.85
2017-11-11T06:19:17.595Z,6.92
2017-11-11T06:20:17.623Z,6.92
2017-11-11T06:21:17.653Z,6.80
2017-11-11T06:22:17.682Z,6.87
2017-11-11T06:23:17.711Z,6.87
2017-11-11T06:24:17.739Z,6.85
2017-11-11T06:25:17.768Z,6.91
2017-11-11T06:26:17.799Z,6.92
2017-11-11T06:27:17.827Z,6.95
2017-11-11T06:28:17.856Z,6.91
2017-11-11T06:29:17.893Z,6.92
2017-11-11T06:30:17.916Z,6.92
2017-11-11T06:31:17.945Z,7.02
2017-11-11T06:32:17.978Z,6.95
2017-11-11T06:33:18.007Z,6.99
2017-11-11T06:34:18.031Z,6.89
2017-11-11T06:35:18.060Z,7.03
2017-11-11T06:36:18.093Z,6.97
2017-11-11T06:37:18.118Z,6.98
2017-11-11T06:38:18.148Z,7.15
2017-11-11T06:39:18.176Z,7.17
2017-11-11T06:40:18.208Z,7.15
2017-11-11T06:41:18.234Z,7.15
2017-11-11T06:42:18.263Z,7.13
2017-11-11T06:43:18.294Z,7.17
2017-11-11T06:44:18.322Z,7.20
2017-11-11T06:45:18.364Z,7.10
2017-11-11T06:46:18.382Z,7.10
2017-11-11T06:47:18.410Z,7.09
2017-11-11T06:48:18.437Z,7.17
2017-11-11T06:49:18.469Z,7.03
2017-11-11T06:50:18.498Z,7.05
2017-11-11T06:51:18.525Z,7.17
2017-11-11T06:52:18.562Z,7.16
2017-11-11T06:53:18.587Z,7.17
2017-11-11T06:54:18.614Z,7.15
2017-11-11T06:55:18.644Z,7.17
2017-11-11T06:56:18.672Z,7.21
2017-11-11T06:57:18.702Z,7.25
2017-11-11T06:58:18.730Z,7.23
2017-11-11T06:59:18.761Z,7.21
2017-11-11T07:00:18.790Z,7.20
2017-11-11T07:01:18.817Z,7.23
2017-11-11T07:02:18.850Z,7.17
2017-11-11T07:03:18.878Z,7.25
2017-11-11T07:04:18.905Z,7.24
2017-11-11T07:05:18.939Z,7.34
2017-11-11T07:06:18.964Z,7.32
2017-11-11T07:07:18.994Z,7.37
2017-11-11T07:08:19.029Z,7.32
2017-11-11T07:09:19.052Z,7.37
2017-11-11T07:10:19.087Z,7.48
2017-11-11T07:11:19.111Z,7.46
2017-11-11T07:12:19.139Z,7.46
2017-11-11T07:13:19.169Z,7.46
2017-11-11T07:14:19.202Z,7.46
2017-11-11T07:15:19.231Z,7.48
2017-11-11T07:16:19.257Z,7.48
2017-11-11T07:17:19.286Z,7.49
2017-11-11T07:18:19.316Z,7.50
2017-11-11T07:19:19.346Z,7.43
2017-11-11T07:20:19.376Z,7.46
2017-11-11T07:21:19.404Z,7.46
2017-11-11T07:22:19.441Z,7.68
2017-11-11T07:23:19.463Z,7.57
2017-11-11T07:24:19.547Z,7.60
2017-11-11T07:25:19.527Z,7.63
2017-11-11T07:26:19.550Z,7.68
2017-11-11T07:27:19.581Z,7.68
2017-11-11T07:28:19.609Z,7.61
2017-11-11T07:29:19.641Z,7.75
2017-11-11T07:30:19.672Z,7.74
2017-11-11T07:31:19.700Z,7.80
2017-11-11T07:32:19.728Z,7.83
2017-11-11T07:33:19.757Z,7.83
2017-11-11T07:34:19.796Z,7.92
2017-11-11T07:35:19.817Z,7.85
2017-11-11T07:36:19.847Z,7.87
2017-11-11T07:37:19.877Z,7.86
2017-11-11T07:38:19.906Z,7.92
2017-11-11T07:39:19.968Z,7.89
2017-11-11T07:40:19.965Z,7.80
2017-11-11T07:41:19.995Z,7.95
2017-11-11T07:42:20.024Z,8.11
2017-11-11T07:43:20.055Z,8.12
2017-11-11T07:44:20.084Z,8.20
2017-11-11T07:45:20.114Z,8.19
2017-11-11T07:46:20.142Z,8.30
2017-11-11T07:47:20.172Z,8.34
2017-11-11T07:48:20.200Z,8.47
2017-11-11T07:49:20.236Z,8.55
2017-11-11T07:50:20.312Z,8.66
2017-11-11T07:51:20.292Z,8.61
2017-11-11T07:52:20.321Z,8.56
2017-11-11T07:53:20.350Z,8.53
2017-11-11T07:54:20.381Z,8.53
2017-11-11T07:55:20.565Z,8.63
2017-11-11T07:56:20.439Z,8.66
2017-11-11T07:57:20.470Z,8.70
2017-11-11T07:58:20.500Z,8.68
2017-11-11T07:59:20.531Z,8.73
2017-11-11T08:00:20.597Z,8.63
2017-11-11T08:01:20.589Z,8.76
2017-11-11T08:02:20.618Z,8.80
2017-11-11T08:03:20.649Z,8.86
2017-11-11T08:04:20.678Z,8.87
2017-11-11T08:05:20.709Z,8.89
2017-11-11T08:06:20.739Z,9.05
2017-11-11T08:07:20.774Z,9.04
2017-11-11T08:08:20.799Z,9.05
2017-11-11T08:09:20.839Z,9.04
2017-11-11T08:10:20.859Z,8.98
2017-11-11T08:11:20.890Z,8.95
2017-11-11T08:12:20.919Z,8.84
2017-11-11T08:13:20.950Z,8.91
2017-11-11T08:14:20.982Z,8.87
2017-11-11T08:15:21.014Z,8.94
2017-11-11T08:16:21.040Z,8.98
2017-11-11T08:17:21.070Z,8.94
2017-11-11T08:18:21.102Z,9.04
2017-11-11T08:19:21.133Z,9.10
2017-11-11T08:20:21.163Z,9.05
2017-11-11T08:21:21.227Z,9.15
2017-11-11T08:22:21.222Z,9.26
2017-11-11T08:23:21.268Z,9.23
2017-11-11T08:24:21.284Z,9.26
2017-11-11T08:25:21.314Z,9.26
2017-11-11T08:26:21.344Z,9.24
2017-11-11T08:27:21.380Z,9.35
2017-11-11T08:28:21.409Z,9.28
2017-11-11T08:29:21.437Z,9.35
2017-11-11T08:30:21.466Z,9.31
2017-11-11T08:31:21.498Z,9.42
2017-11-11T08:32:21.528Z,9.46
2017-11-11T08:33:21.558Z,9.57
2017-11-11T08:34:21.591Z,9.58
2017-11-11T08:35:21.619Z,9.66
2017-11-11T08:36:21.650Z,9.65
2017-11-11T08:37:21.680Z,9.65
2017-11-11T08:38:21.710Z,9.72
2017-11-11T08:39:21.742Z,9.84
2017-11-11T08:40:21.779Z,9.71
2017-11-11T08:41:21.802Z,9.53
2017-11-11T08:42:21.832Z,9.53
2017-11-11T08:43:21.864Z,9.71
2017-11-11T08:44:21.894Z,9.64
2017-11-11T08:45:21.926Z,9.69
2017-11-11T08:46:21.961Z,9.71
2017-11-11T08:47:22.185Z,9.68
2017-11-11T08:48:22.015Z,9.66
2017-11-11T08:49:22.048Z,9.66
2017-11-11T08:50:22.078Z,9.65
2017-11-11T08:51:22.109Z,9.65
2017-11-11T08:52:22.139Z,9.64
2017-11-11T08:53:22.170Z,9.72
2017-11-11T08:54:22.202Z,9.66
2017-11-11T08:55:22.231Z,9.68
2017-11-11T08:56:22.262Z,9.81
2017-11-11T08:57:22.291Z,9.75
2017-11-11T08:58:22.322Z,9.84
2017-11-11T08:59:22.354Z,9.86
2017-11-11T09:00:22.383Z,9.72
2017-11-11T09:01:22.415Z,9.65
2017-11-11T09:02:22.448Z,9.47
2017-11-11T09:03:22.475Z,9.50
2017-11-11T09:04:22.507Z,9.53
2017-11-11T09:05:22.537Z,9.56
2017-11-11T09:06:22.567Z,9.66
2017-11-11T09:07:22.599Z,9.65
2017-11-11T09:08:22.631Z,9.66
2017-11-11T09:09:22.664Z,9.72
2017-11-11T09:10:22.692Z,9.74
2017-11-11T09:11:22.721Z,9.75
2017-11-11T09:12:22.759Z,9.71
2017-11-11T09:13:22.787Z,9.78
2017-11-11T09:14:22.814Z,9.90
2017-11-11T09:15:22.845Z,9.86
2017-11-11T09:16:22.875Z,9.87
2017-11-11T09:17:22.905Z,9.86
2017-11-11T09:18:22.937Z,9.83
2017-11-11T09:19:22.967Z,9.91
2017-11-11T09:20:22.997Z,9.99
2017-11-11T09:21:23.027Z,9.90
2017-11-11T09:22:23.061Z,9.81
2017-11-11T09:23:23.091Z,9.83
2017-11-11T09:24:23.121Z,9.68
2017-11-11T09:25:23.150Z,9.87
2017-11-11T09:26:23.181Z,9.83
2017-11-11T09:27:23.213Z,10.01
2017-11-11T09:28:23.244Z,9.79
2017-11-11T09:29:23.274Z,9.89
2017-11-11T09:30:23.305Z,9.89
2017-11-11T09:31:23.341Z,9.94
2017-11-11T09:32:23.367Z,9.97
2017-11-11T09:33:23.396Z,10.14
2017-11-11T09:34:23.428Z,10.05
2017-11-11T09:35:23.463Z,10.05
2017-11-11T09:36:23.489Z,10.02
2017-11-11T09:37:23.522Z,9.97
2017-11-11T09:38:23.551Z,9.97
2017-11-11T09:39:23.582Z,10.08
2017-11-11T09:40:23.612Z,10.08
2017-11-11T09:41:23.643Z,10.09
2017-11-11T09:42:23.674Z,10.09
2017-11-11T09:43:23.706Z,10.04
2017-11-11T09:44:23.736Z,9.99
2017-11-11T09:45:23.766Z,10.07
2017-11-11T09:46:23.796Z,10.05
2017-11-11T09:47:23.829Z,9.93
2017-11-11T09:48:23.864Z,9.99
2017-11-11T09:49:23.889Z,9.97
2017-11-11T09:50:23.921Z,9.94
2017-11-11T09:51:23.956Z,9.86
2017-11-11T09:52:23.982Z,10.05
2017-11-11T09:53:24.012Z,10.12
2017-11-11T09:54:24.044Z,10.08
2017-11-11T09:55:24.074Z,10.09
2017-11-11T09:56:24.103Z,10.14
2017-11-11T09:57:24.138Z,10.11
2017-11-11T09:58:24.166Z,10.05
2017-11-11T09:59:24.197Z,10.07
2017-11-11T10:00:24.226Z,10.11
2017-11-11T10:01:24.259Z,10.09
2017-11-11T10:02:24.290Z,10.08
2017-11-11T10:03:24.321Z,10.14
2017-11-11T10:04:24.351Z,10.15
2017-11-11T10:05:24.382Z,10.20
2017-11-11T10:06:24.413Z,10.14
2017-11-11T10:07:24.444Z,10.23
2017-11-11T10:08:24.477Z,10.12
2017-11-11T10:09:24.505Z,10.05
2017-11-11T10:10:24.537Z,10.05
2017-11-11T10:11:24.567Z,10.08
2017-11-11T10:12:24.602Z,9.94
2017-11-11T10:13:24.629Z,9.97
2017-11-11T10:14:24.659Z,9.93
2017-11-11T10:15:24.689Z,10.05
2017-11-11T10:16:24.720Z,10.08
2017-11-11T10:17:24.752Z,10.09
2017-11-11T10:18:24.782Z,10.11
2017-11-11T10:19:24.814Z,9.93
2017-11-11T10:20:24.844Z,9.93
2017-11-11T10:21:24.874Z,9.94
2017-11-11T10:22:24.912Z,10.08
2017-11-11T10:23:24.942Z,10.14
2017-11-11T10:24:24.979Z,10.18
2017-11-11T10:25:24.999Z,10.23
2017-11-11T10:26:25.030Z,10.25
2017-11-11T10:27:25.062Z,10.17
2017-11-11T10:28:25.093Z,10.23
2017-11-11T10:29:25.132Z,10.22
2017-11-11T10:30:25.153Z,10.33
2017-11-11T10:31:25.194Z,10.29
2017-11-11T10:32:25.214Z,10.18
2017-11-11T10:33:25.244Z,10.22
2017-11-11T10:34:25.278Z,10.26
2017-11-11T10:35:25.312Z,10.17
2017-11-11T10:36:25.338Z,10.22
2017-11-11T10:37:25.370Z,10.32
2017-11-11T10:38:25.400Z,10.22
2017-11-11T10:39:25.431Z,10.18
2017-11-11T10:40:25.461Z,10.17
2017-11-11T10:41:25.493Z,10.14
2017-11-11T10:42:25.524Z,10.17
2017-11-11T10:43:25.555Z,10.23
2017-11-11T10:44:25.591Z,10.18
2017-11-11T10:45:25.616Z,10.20
2017-11-11T10:46:25.649Z,10.18
2017-11-11T10:47:25.678Z,10.09
2017-11-11T10:48:25.709Z,10.08
2017-11-11T10:49:25.740Z,10.12
2017-11-11T10:50:25.771Z,10.12
2017-11-11T10:51:25.803Z,9.94
2017-11-11T10:52:25.833Z,9.91
2017-11-11T10:53:25.866Z,9.96
2017-11-11T10:54:25.895Z,9.93
2017-11-11T10:55:25.927Z,9.86
2017-11-11T10:56:25.956Z,9.93
2017-11-11T10:57:26.039Z,10.05
2017-11-11T10:58:26.019Z,10.05
2017-11-11T10:59:26.050Z,10.07
2017-11-11T11:00:26.080Z,10.09
2017-11-11T11:01:26.111Z,10.09
2017-11-11T11:02:26.193Z,10.05
2017-11-11T11:03:26.173Z,10.08
2017-11-11T11:04:26.203Z,10.12
2017-11-11T11:05:26.238Z,10.12
2017-11-11T11:06:26.266Z,10.09
2017-11-11T11:07:26.297Z,10.25
2017-11-11T11:08:26.328Z,10.17
2017-11-11T11:09:26.363Z,10.14
2017-11-11T11:10:26.389Z,10.20
2017-11-11T11:11:26.421Z,10.18
2017-11-11T11:12:26.450Z,10.14
2017-11-11T11:13:26.482Z,10.15
2017-11-11T11:14:26.512Z,10.05
2017-11-11T11:15:26.544Z,9.99
2017-11-11T11:16:26.575Z,9.96
2017-11-11T11:17:26.615Z,9.97
2017-11-11T11:18:26.641Z,9.91
2017-11-11T11:19:26.666Z,9.96
2017-11-11T11:20:26.700Z,9.99
2017-11-11T11:21:26.727Z,9.94
2017-11-11T11:22:26.758Z,10.05
2017-11-11T11:23:26.788Z,10.02
2017-11-11T11:24:26.820Z,10.01
2017-11-11T11:25:26.857Z,9.93
2017-11-11T11:26:26.888Z,9.91
2017-11-11T11:27:26.912Z,9.90
2017-11-11T11:28:26.972Z,9.83
2017-11-11T11:29:26.973Z,9.91
2017-11-11T11:30:27.003Z,9.90
2017-11-11T11:31:27.034Z,9.79
2017-11-11T11:32:27.063Z,9.84
2017-11-11T11:33:27.100Z,9.69
2017-11-11T11:34:27.131Z,9.66
2017-11-11T11:35:27.157Z,9.83
2017-11-11T11:36:27.199Z,9.78
2017-11-11T11:37:27.215Z,9.83
2017-11-11T11:38:27.247Z,9.79
2017-11-11T11:39:27.279Z,9.81
2017-11-11T11:40:27.306Z,9.74
2017-11-11T11:41:27.338Z,9.66
2017-11-11T11:42:27.369Z,9.65
2017-11-11T11:43:27.404Z,9.32
2017-11-11T11:44:27.430Z,9.35
2017-11-11T11:45:27.458Z,9.35
2017-11-11T11:46:27.491Z,9.38
2017-11-11T11:47:27.522Z,9.58
2017-11-11T11:48:27.551Z,9.50
2017-11-11T11:49:27.583Z,9.54
2017-11-11T11:50:27.611Z,9.64
2017-11-11T11:51:27.642Z,9.66
2017-11-11T11:52:27.671Z,9.68
2017-11-11T11:53:27.702Z,9.69
2017-11-11T11:54:27.733Z,9.68
2017-11-11T11:55:27.769Z,9.78
2017-11-11T11:56:27.793Z,9.87
2017-11-11T11:57:27.823Z,9.87
2017-11-11T11:58:27.853Z,9.72
2017-11-11T11:59:27.885Z,9.72
2017-11-11T12:00:27.914Z,9.78
2017-11-11T12:01:27.945Z,9.83
2017-11-11T12:02:27.975Z,9.83
2017-11-11T12:03:28.005Z,9.79
2017-11-11T12:04:28.036Z,9.83
2017-11-11T12:05:28.067Z,9.69
2017-11-11T12:06:28.097Z,9.75
2017-11-11T12:07:28.127Z,9.72
2017-11-11T12:08:28.155Z,9.71
2017-11-11T12:09:28.226Z,9.61
2017-11-11T12:10:28.220Z,9.72
2017-11-11T12:11:28.268Z,9.74
2017-11-11T12:12:28.279Z,9.79
2017-11-11T12:13:28.309Z,9.81
2017-11-11T12:14:28.338Z,9.76
2017-11-11T12:15:28.371Z,9.86
2017-11-11T12:16:28.400Z,9.91
2017-11-11T12:17:28.430Z,9.89
2017-11-11T12:18:28.461Z,9.90
2017-11-11T12:19:28.492Z,9.86
2017-11-11T12:20:28.523Z,9.94
2017-11-11T12:21:28.552Z,9.94
2017-11-11T12:22:28.584Z,9.87
2017-11-11T12:23:28.613Z,9.87
2017-11-11T12:24:28.644Z,9.84
2017-11-11T12:25:28.674Z,9.89
2017-11-11T12:26:28.705Z,9.87
2017-11-11T12:27:28.737Z,9.86
2017-11-11T12:28:28.765Z,9.83
2017-11-11T12:29:28.796Z,9.68
2017-11-11T12:30:28.826Z,9.69
2017-11-11T12:31:28.856Z,9.75
2017-11-11T12:32:28.888Z,9.68
2017-11-11T12:33:28.918Z,9.76
2017-11-11T12:34:28.956Z,9.79
2017-11-11T12:35:28.979Z,9.83
2017-11-11T12:36:29.010Z,9.81
2017-11-11T12:37:29.041Z,9.81
2017-11-11T12:38:29.071Z,9.90
2017-11-11T12:39:29.100Z,10.02
2017-11-11T12:40:29.131Z,10.04
2017-11-11T12:41:29.165Z,10.14
2017-11-11T12:42:29.193Z,10.05
2017-11-11T12:43:29.223Z,10.05
2017-11-11T12:44:29.253Z,10.05
2017-11-11T12:45:29.284Z,10.14
2017-11-11T12:46:29.314Z,10.14
2017-11-11T12:47:29.354Z,9.97
2017-11-11T12:48:29.375Z,10.08
2017-11-11T12:49:29.405Z,10.04
2017-11-11T12:50:29.437Z,10.05
2017-11-11T12:51:29.475Z,9.96
2017-11-11T12:52:29.497Z,9.93
2017-11-11T12:53:29.528Z,10.07
2017-11-11T12:54:29.559Z,10.04
2017-11-11T12:55:29.590Z,10.12
2017-11-11T12:56:29.619Z,10.02
2017-11-11T12:57:29.650Z,10.08
2017-11-11T12:58:29.681Z,10.05
2017-11-11T12:59:29.712Z,10.09
2017-11-11T13:00:29.743Z,10.02
2017-11-11T13:01:29.775Z,9.91
2017-11-11T13:02:29.806Z,10.02
2017-11-11T13:03:29.833Z,9.94
2017-11-11T13:04:29.865Z,10.11
2017-11-11T13:05:29.895Z,10.07
2017-11-11T13:06:29.926Z,9.93
2017-11-11T13:07:29.958Z,9.93
2017-11-11T13:08:29.987Z,9.87
2017-11-11T13:09:30.019Z,9.79
2017-11-11T13:10:30.050Z,9.86
2017-11-11T13:11:30.083Z,9.84
2017-11-11T13:12:30.109Z,9.81
2017-11-11T13:13:30.141Z,9.94
2017-11-11T13:14:30.172Z,10.04